createdAt,value
2022-09-15T00:01:00.970Z,5.03
2022-09-15T00:03:28.543Z,5.00
2022-09-15T00:05:55.809Z,5.30
2022-09-15T00:08:23.477Z,4.55
2022-09-15T00:10:52.988Z,3.65
2022-09-15T00:13:21.071Z,3.92
2022-09-15T00:15:48.694Z,3.60
2022-09-15T00:18:16.112Z,4.20
2022-09-15T00:20:45.232Z,2.70
2022-09-15T00:23:14.220Z,3.78
2022-09-15T00:25:46.798Z,5.68
2022-09-15T00:28:15.810Z,3.10
2022-09-15T00:30:44.868Z,3.53
2022-09-15T00:33:12.951Z,2.88
2022-09-15T00:35:41.411Z,3.58
2022-09-15T00:38:10.303Z,3.50
2022-09-15T00:40:44.983Z,3.88
2022-09-15T00:43:12.902Z,3.70
2022-09-15T00:45:40.696Z,4.60
2022-09-15T00:48:12.429Z,4.03
2022-09-15T00:50:41.132Z,5.32
2022-09-15T00:53:09.953Z,2.60
2022-09-15T00:55:47.505Z,4.10
2022-09-15T00:58:21.919Z,3.92
2022-09-15T01:01:03.271Z,8.90
2022-09-15T01:03:33.069Z,5.75
2022-09-15T01:06:05.783Z,3.55
2022-09-15T01:08:36.168Z,3.58
2022-09-15T01:11:03.726Z,5.13
2022-09-15T01:13:30.955Z,5.82
2022-09-15T01:19:10.377Z,5.72
2022-09-15T01:21:43.439Z,6.80
2022-09-15T01:24:16.892Z,5.93
2022-09-15T01:27:30.450Z,5.60
2022-09-15T01:30:04.138Z,5.47
2022-09-15T01:32:53.148Z,4.43
2022-09-15T01:35:57.826Z,4.88
2022-09-15T01:38:33.306Z,5.25
2022-09-15T01:41:05.873Z,5.40
2022-09-15T01:43:39.364Z,4.60
2022-09-15T01:46:07.465Z,4.90
2022-09-15T01:48:35.866Z,5.25
2022-09-15T01:51:03.971Z,4.97
2022-09-15T01:53:31.361Z,5.00
2022-09-15T01:56:02.802Z,4.05
2022-09-15T01:58:29.995Z,3.63
2022-09-15T02:01:00.870Z,3.88
2022-09-15T02:03:35.051Z,3.90
2022-09-15T02:06:07.237Z,3.38
2022-09-15T02:08:47.724Z,2.72
2022-09-15T02:11:21.823Z,7.05
2022-09-15T02:14:28.328Z,7.13
2022-09-15T02:16:56.061Z,7.93
2022-09-15T02:19:41.202Z,9.30
2022-09-15T02:22:17.568Z,15.23
2022-09-15T02:24:50.102Z,12.45
2022-09-15T02:27:24.072Z,13.02
2022-09-15T02:29:54.058Z,14.90
2022-09-15T02:32:23.498Z,14.35
2022-09-15T02:34:51.695Z,15.48
2022-09-15T02:37:21.319Z,18.85
2022-09-15T02:39:51.730Z,17.00
2022-09-15T02:42:26.829Z,17.38
2022-09-15T02:44:54.130Z,17.45
2022-09-15T02:47:21.617Z,15.30
2022-09-15T02:49:48.866Z,16.48
2022-09-15T02:52:16.400Z,13.57
2022-09-15T02:54:43.716Z,14.57
2022-09-15T02:57:10.910Z,14.82
2022-09-15T03:00:13.308Z,16.10
2022-09-15T03:02:41.846Z,12.75
2022-09-15T03:05:10.656Z,14.02
2022-09-15T03:07:38.512Z,15.02
2022-09-15T03:10:07.644Z,11.90
2022-09-15T03:12:54.243Z,11.40
2022-09-15T03:15:23.625Z,10.48
2022-09-15T03:17:50.908Z,8.73
2022-09-15T03:20:23.200Z,9.55
2022-09-15T03:22:50.417Z,9.88
2022-09-15T03:25:18.565Z,7.18
2022-09-15T03:27:46.256Z,8.07
2022-09-15T03:30:14.059Z,8.45
2022-09-15T03:32:41.313Z,7.95
2022-09-15T03:35:09.418Z,7.75
2022-09-15T03:37:37.205Z,10.57
2022-09-15T03:40:05.232Z,7.65
2022-09-15T03:42:32.694Z,8.18
2022-09-15T03:44:59.926Z,8.57
2022-09-15T03:47:27.197Z,7.35
2022-09-15T03:49:55.312Z,8.23
2022-09-15T03:52:23.882Z,10.27
2022-09-15T03:54:51.068Z,10.07
2022-09-15T03:57:18.312Z,7.40
2022-09-15T03:59:45.480Z,9.30
2022-09-15T04:02:12.900Z,9.60
2022-09-15T04:04:40.095Z,8.73
2022-09-15T04:07:08.818Z,12.15
2022-09-15T04:09:37.338Z,10.80
2022-09-15T04:12:04.753Z,11.23
2022-09-15T04:14:31.983Z,11.02
2022-09-15T04:16:59.372Z,10.90
2022-09-15T04:19:26.640Z,11.80
2022-09-15T04:21:53.900Z,10.63
2022-09-15T04:24:21.107Z,10.57
2022-09-15T04:26:48.551Z,12.13
2022-09-15T04:29:17.466Z,11.55
2022-09-15T04:31:45.175Z,12.57
2022-09-15T04:34:12.405Z,12.80
2022-09-15T04:36:39.657Z,14.48
2022-09-15T04:39:06.968Z,13.30
2022-09-15T04:41:34.456Z,15.43
2022-09-15T04:44:02.382Z,13.88
2022-09-15T04:46:29.780Z,14.52
2022-09-15T04:48:57.416Z,13.32
2022-09-15T04:51:24.960Z,14.32
2022-09-15T04:53:52.386Z,13.82
2022-09-15T04:56:22.074Z,23.67
2022-09-15T04:59:03.214Z,16.85
2022-09-15T05:01:33.880Z,15.75
2022-09-15T05:04:05.990Z,17.77
2022-09-15T05:06:34.703Z,19.13
2022-09-15T05:09:06.522Z,20.00
2022-09-15T05:11:37.723Z,18.73
2022-09-15T05:14:05.057Z,13.88
2022-09-15T05:16:32.422Z,19.08
2022-09-15T05:19:02.963Z,18.80
2022-09-15T05:21:30.815Z,19.95
2022-09-15T05:23:58.234Z,16.05
2022-09-15T05:26:28.201Z,16.08
2022-09-15T05:28:56.563Z,18.50
2022-09-15T05:31:36.243Z,16.13
2022-09-15T05:34:05.589Z,22.33
2022-09-15T05:36:33.613Z,16.40
2022-09-15T05:39:01.844Z,17.17
2022-09-15T05:41:29.427Z,16.27
2022-09-15T05:43:57.764Z,14.45
2022-09-15T05:46:29.084Z,16.95
2022-09-15T05:48:58.175Z,17.73
2022-09-15T05:51:25.484Z,19.15
2022-09-15T05:53:52.779Z,20.50
2022-09-15T05:56:20.242Z,19.00
2022-09-15T05:58:48.245Z,16.80
2022-09-15T06:01:18.030Z,17.63
2022-09-15T06:03:45.793Z,20.77
2022-09-15T06:06:13.541Z,22.13
2022-09-15T06:08:44.415Z,22.42
2022-09-15T06:11:23.833Z,22.25
2022-09-15T06:13:51.095Z,20.77
2022-09-15T06:16:21.308Z,27.05
2022-09-15T06:21:21.136Z,28.98
2022-09-15T06:23:56.095Z,26.55
2022-09-15T06:26:23.545Z,24.98
2022-09-15T06:28:55.559Z,28.30
2022-09-15T06:31:23.795Z,28.88
2022-09-15T06:33:54.111Z,31.63
2022-09-15T06:36:23.075Z,24.70
2022-09-15T06:38:51.679Z,27.17
2022-09-15T06:41:18.994Z,31.63
2022-09-15T06:43:46.878Z,30.40
2022-09-15T06:46:17.163Z,31.67
2022-09-15T06:48:48.163Z,31.45
2022-09-15T06:51:17.496Z,30.92
2022-09-15T06:53:45.585Z,33.13
2022-09-15T06:56:15.049Z,31.40
2022-09-15T06:58:43.075Z,36.92
2022-09-15T07:01:12.526Z,39.65
2022-09-15T07:03:42.566Z,34.90
2022-09-15T07:06:12.064Z,34.03
2022-09-15T07:08:40.447Z,38.45
2022-09-15T07:11:09.636Z,39.65
2022-09-15T07:13:37.379Z,33.58
2022-09-15T07:16:06.596Z,37.00
2022-09-15T07:18:35.507Z,34.22
2022-09-15T07:21:10.455Z,34.22
2022-09-15T07:23:37.776Z,42.30
2022-09-15T07:26:15.405Z,35.72
2022-09-15T07:28:44.853Z,38.50
2022-09-15T07:31:15.395Z,37.65
2022-09-15T07:33:45.770Z,30.33
2022-09-15T07:36:13.277Z,31.65
2022-09-15T07:38:43.060Z,32.90
2022-09-15T07:41:25.160Z,33.95
2022-09-15T07:43:54.506Z,33.03
2022-09-15T07:46:23.318Z,31.93
2022-09-15T07:48:53.345Z,32.33
2022-09-15T07:53:48.534Z,39.97
2022-09-15T07:56:19.690Z,35.28
2022-09-15T07:58:47.697Z,33.17
2022-09-15T08:01:16.292Z,34.50
2022-09-15T08:03:46.250Z,31.63
2022-09-15T08:06:14.410Z,30.88
2022-09-15T08:08:44.039Z,35.15
2022-09-15T08:11:18.405Z,32.15
2022-09-15T08:13:47.704Z,27.83
2022-09-15T08:16:18.185Z,25.80
2022-09-15T08:18:45.896Z,31.92
2022-09-15T08:21:22.642Z,26.25
2022-09-15T08:23:51.825Z,31.85
2022-09-15T08:26:19.138Z,23.10
2022-09-15T08:28:46.424Z,22.48
2022-09-15T08:31:14.505Z,26.75
2022-09-15T08:33:45.693Z,18.25
2022-09-15T08:36:13.805Z,26.25
2022-09-15T08:38:44.510Z,26.13
2022-09-15T08:41:20.425Z,19.65
2022-09-15T08:43:50.039Z,21.08
2022-09-15T08:46:22.709Z,20.60
2022-09-15T08:48:58.623Z,21.85
2022-09-15T08:51:50.110Z,18.60
2022-09-15T08:54:21.462Z,21.38
2022-09-15T08:56:49.131Z,18.25
2022-09-15T08:59:17.593Z,16.23
2022-09-15T09:01:54.766Z,11.43
2022-09-15T09:04:43.465Z,12.70
2022-09-15T09:07:26.131Z,14.32
2022-09-15T09:09:57.525Z,15.00
2022-09-15T09:12:43.209Z,14.07
2022-09-15T09:15:35.021Z,8.95
2022-09-15T09:18:11.414Z,15.38
2022-09-15T09:20:41.397Z,19.13
2022-09-15T09:23:13.074Z,10.63
2022-09-15T09:25:42.097Z,17.73
2022-09-15T09:28:39.035Z,14.65
2022-09-15T09:31:08.311Z,14.48
2022-09-15T09:33:47.701Z,16.00
2022-09-15T09:36:15.572Z,12.23
2022-09-15T09:38:45.675Z,11.13
2022-09-15T09:41:15.665Z,10.02
2022-09-15T09:43:44.489Z,12.13
2022-09-15T09:46:14.980Z,10.88
2022-09-15T09:49:03.760Z,8.80
2022-09-15T09:51:39.757Z,11.18
2022-09-15T09:54:11.962Z,11.68
2022-09-15T09:56:40.305Z,10.32
2022-09-15T09:59:39.526Z,12.30
2022-09-15T10:02:18.208Z,13.90
2022-09-15T10:04:53.876Z,15.05
2022-09-15T10:07:27.445Z,12.10
2022-09-15T10:09:57.439Z,13.30
2022-09-15T10:12:32.961Z,18.13
2022-09-15T10:15:03.798Z,13.00
2022-09-15T10:17:41.015Z,9.75
2022-09-15T10:20:28.763Z,13.93
2022-09-15T10:23:29.583Z,16.27
2022-09-15T10:26:18.243Z,9.57
2022-09-15T10:28:45.955Z,13.38
2022-09-15T10:31:28.082Z,11.40
2022-09-15T10:33:55.374Z,14.43
2022-09-15T10:36:24.523Z,14.65
2022-09-15T10:39:21.041Z,21.77
2022-09-15T10:42:04.459Z,37.42
2022-09-15T10:44:34.192Z,42.15
2022-09-15T10:47:53.609Z,43.00
2022-09-15T10:50:27.511Z,15.23
2022-09-15T10:53:39.590Z,20.67
2022-09-15T10:56:35.220Z,15.18
2022-09-15T10:59:18.778Z,7.95
2022-09-15T11:02:16.995Z,6.53
2022-09-15T11:04:53.434Z,9.43
2022-09-15T11:07:23.622Z,13.85
2022-09-15T11:12:48.523Z,9.27
2022-09-15T11:15:43.322Z,7.60
2022-09-15T11:18:13.720Z,7.75
2022-09-15T11:21:02.388Z,8.30
2022-09-15T11:23:54.756Z,7.45
2022-09-15T11:26:28.088Z,6.88
2022-09-15T11:29:16.421Z,9.05
2022-09-15T11:31:44.990Z,24.48
2022-09-15T11:34:22.460Z,41.90
2022-09-15T11:36:55.123Z,38.78
2022-09-15T11:39:24.051Z,39.95
2022-09-15T11:41:57.479Z,36.60
2022-09-15T11:44:28.258Z,35.40
2022-09-15T11:47:23.275Z,25.38
2022-09-15T11:49:58.219Z,21.13
2022-09-15T11:52:46.815Z,29.08
2022-09-15T11:55:22.801Z,11.93
2022-09-15T11:58:01.356Z,13.68
2022-09-15T12:00:28.686Z,13.73
2022-09-15T12:03:21.043Z,30.75
2022-09-15T12:05:54.590Z,21.33
2022-09-15T12:08:24.990Z,36.25
2022-09-15T12:10:55.420Z,17.70
2022-09-15T12:13:25.696Z,32.47
2022-09-15T12:15:53.504Z,39.88
2022-09-15T12:18:47.683Z,26.00
2022-09-15T12:21:35.910Z,65.70
2022-09-15T12:24:22.116Z,35.25
2022-09-15T12:26:50.284Z,53.42
2022-09-15T12:29:26.643Z,40.35
2022-09-15T12:32:20.000Z,39.35
2022-09-15T12:35:16.417Z,83.78
2022-09-15T12:37:47.259Z,54.95
2022-09-15T12:40:34.548Z,27.38
2022-09-15T12:43:03.898Z,38.40
2022-09-15T12:45:38.610Z,72.13
2022-09-15T12:48:12.122Z,73.38
2022-09-15T12:50:41.030Z,41.47
2022-09-15T12:53:23.448Z,29.55
2022-09-15T12:55:55.921Z,13.65
2022-09-15T12:58:49.793Z,13.15
2022-09-15T13:01:23.377Z,23.38
2022-09-15T13:03:50.953Z,18.40
2022-09-15T13:06:20.975Z,14.65
2022-09-15T13:11:36.882Z,9.20
2022-09-15T13:14:04.249Z,11.15
2022-09-15T13:16:54.985Z,14.82
2022-09-15T13:19:27.213Z,8.13
2022-09-15T13:22:00.016Z,9.68
2022-09-15T13:24:36.032Z,10.30
2022-09-15T13:27:05.621Z,11.02
2022-09-15T13:29:43.409Z,13.32
2022-09-15T13:32:45.103Z,6.43
2022-09-15T13:35:27.681Z,9.38
2022-09-15T13:38:25.001Z,8.45
2022-09-15T13:41:32.838Z,9.98
2022-09-15T13:44:07.247Z,7.38
2022-09-15T13:47:08.788Z,6.82
2022-09-15T13:49:47.737Z,12.43
2022-09-15T13:52:22.473Z,8.68
2022-09-15T13:55:28.001Z,7.10
2022-09-15T14:00:55.766Z,12.93
2022-09-15T14:03:33.880Z,8.10
2022-09-15T14:06:01.330Z,6.38
2022-09-15T14:08:32.448Z,9.95
2022-09-15T14:11:03.597Z,14.40
2022-09-15T14:13:31.453Z,10.07
2022-09-15T14:16:28.026Z,9.00
2022-09-15T14:18:57.783Z,13.65
2022-09-15T14:21:28.230Z,12.35
2022-09-15T14:23:57.878Z,8.40
2022-09-15T14:26:27.104Z,10.23
2022-09-15T14:29:01.156Z,8.13
2022-09-15T14:31:34.708Z,14.02
2022-09-15T14:34:04.049Z,13.18
2022-09-15T14:36:33.199Z,7.50
2022-09-15T14:39:16.386Z,7.22
2022-09-15T14:41:44.288Z,10.88
2022-09-15T14:45:54.993Z,10.35
2022-09-15T14:47:25.522Z,10.32
2022-09-15T14:50:10.176Z,8.98
2022-09-15T14:52:43.241Z,10.35
2022-09-15T14:55:24.475Z,6.50
2022-09-15T14:58:30.057Z,9.52
2022-09-15T15:01:11.744Z,8.18
2022-09-15T15:03:57.955Z,9.85
2022-09-15T15:06:29.369Z,12.68
2022-09-15T15:08:58.326Z,9.35
2022-09-15T15:11:26.014Z,9.32
2022-09-15T15:13:53.857Z,9.90
2022-09-15T15:16:24.558Z,12.23
2022-09-15T15:18:53.524Z,7.70
2022-09-15T15:21:42.317Z,8.38
2022-09-15T15:24:17.392Z,9.82
2022-09-15T15:26:46.203Z,11.45
2022-09-15T15:29:38.365Z,9.95
2022-09-15T15:32:13.629Z,9.73
2022-09-15T15:34:48.820Z,9.02
2022-09-15T15:37:26.441Z,6.45
2022-09-15T15:39:55.558Z,5.32
2022-09-15T15:42:24.116Z,6.20
2022-09-15T15:45:09.885Z,8.98
2022-09-15T15:47:37.413Z,7.75
2022-09-15T15:50:13.592Z,5.20
2022-09-15T15:52:42.018Z,5.55
2022-09-15T15:55:13.782Z,7.40
2022-09-15T15:57:41.230Z,7.22
2022-09-15T16:00:30.530Z,10.23
2022-09-15T16:02:57.852Z,6.55
2022-09-15T16:05:29.512Z,6.90
2022-09-15T16:08:00.659Z,7.43
2022-09-15T16:10:30.343Z,5.43
2022-09-15T16:12:57.691Z,7.35
2022-09-15T16:15:25.088Z,5.85
2022-09-15T16:17:52.258Z,8.02
2022-09-15T16:20:19.825Z,4.82
2022-09-15T16:22:47.084Z,5.50
2022-09-15T16:25:28.088Z,8.10
2022-09-15T16:27:55.799Z,6.93
2022-09-15T16:30:23.043Z,8.65
2022-09-15T16:32:50.412Z,8.52
2022-09-15T16:35:22.674Z,6.65
2022-09-15T16:37:50.019Z,6.10
2022-09-15T16:40:18.072Z,8.65
2022-09-15T16:42:47.264Z,6.32
2022-09-15T16:45:22.925Z,8.00
2022-09-15T16:47:50.113Z,8.30
2022-09-15T16:50:17.476Z,5.80
2022-09-15T16:52:44.791Z,11.00
2022-09-15T16:55:23.379Z,11.63
2022-09-15T16:57:51.017Z,10.05
2022-09-15T17:00:18.302Z,9.63
2022-09-15T17:02:48.938Z,12.55
2022-09-15T17:05:26.182Z,11.48
2022-09-15T17:07:53.428Z,10.82
2022-09-15T17:10:20.930Z,8.80
2022-09-15T17:12:48.630Z,11.75
2022-09-15T17:15:20.217Z,13.35
2022-09-15T17:17:48.061Z,8.73
2022-09-15T17:20:15.922Z,16.80
2022-09-15T17:22:43.334Z,8.60
2022-09-15T17:25:31.359Z,12.10
2022-09-15T17:27:59.190Z,14.65
2022-09-15T17:30:29.120Z,12.15
2022-09-15T17:33:04.298Z,12.20
2022-09-15T17:35:37.482Z,18.88
2022-09-15T17:38:06.470Z,11.15
2022-09-15T17:40:34.844Z,10.45
2022-09-15T17:43:02.541Z,13.68
2022-09-15T17:45:36.613Z,14.70
2022-09-15T17:48:04.648Z,9.57
2022-09-15T17:50:33.893Z,17.35
2022-09-15T17:53:01.268Z,15.80
2022-09-15T17:55:33.457Z,14.82
2022-09-15T17:58:02.631Z,10.25
2022-09-15T18:00:33.352Z,10.60
2022-09-15T18:03:02.849Z,11.75
2022-09-15T18:05:32.969Z,12.35
2022-09-15T18:08:03.394Z,17.75
2022-09-15T18:10:32.052Z,8.93
2022-09-15T18:12:59.338Z,12.45
2022-09-15T18:15:29.234Z,17.50
2022-09-15T18:18:03.845Z,22.95
2022-09-15T18:20:33.127Z,10.88
2022-09-15T18:23:00.470Z,10.93
2022-09-15T18:25:33.724Z,7.95
2022-09-15T18:28:01.883Z,13.98
2022-09-15T18:30:36.454Z,12.63
2022-09-15T18:33:03.947Z,14.75
2022-09-15T18:35:31.352Z,16.85
2022-09-15T18:37:59.784Z,14.70
2022-09-15T18:40:28.288Z,15.38
2022-09-15T18:42:56.574Z,12.73
2022-09-15T18:45:23.966Z,20.63
2022-09-15T18:47:52.310Z,8.48
2022-09-15T18:50:21.780Z,12.80
2022-09-15T18:52:49.374Z,8.30
2022-09-15T18:55:20.195Z,7.28
2022-09-15T18:57:48.146Z,10.65
2022-09-15T19:00:17.993Z,12.10
2022-09-15T19:02:45.446Z,9.60
2022-09-15T19:05:16.483Z,9.55
2022-09-15T19:07:44.527Z,10.43
2022-09-15T19:10:13.161Z,8.57
2022-09-15T19:12:40.810Z,11.02
2022-09-15T19:15:12.143Z,12.57
2022-09-15T19:17:40.576Z,9.80
2022-09-15T19:20:09.870Z,8.88
2022-09-15T19:22:38.003Z,11.40
2022-09-15T19:25:06.576Z,7.63
2022-09-15T19:27:33.967Z,8.18
2022-09-15T19:30:01.396Z,9.15
2022-09-15T19:32:28.879Z,11.30
2022-09-15T19:34:56.112Z,7.43
2022-09-15T19:37:23.592Z,8.77
2022-09-15T19:39:51.282Z,7.00
2022-09-15T19:42:18.534Z,7.85
2022-09-15T19:44:47.731Z,7.38
2022-09-15T19:47:15.379Z,9.05
2022-09-15T19:49:43.088Z,7.80
2022-09-15T19:52:10.554Z,12.00
2022-09-15T19:54:37.863Z,7.22
2022-09-15T19:57:05.356Z,6.47
2022-09-15T19:59:32.609Z,9.82
2022-09-15T20:02:00.804Z,6.05
2022-09-15T20:07:13.785Z,10.00
2022-09-15T20:09:40.988Z,9.82
2022-09-15T20:12:08.163Z,8.23
2022-09-15T20:14:35.539Z,7.95
2022-09-15T20:17:02.699Z,8.75
2022-09-15T20:19:29.896Z,13.00
2022-09-15T20:21:57.630Z,7.15
2022-09-15T20:24:25.040Z,8.70
2022-09-15T20:26:52.447Z,9.63
2022-09-15T20:29:20.237Z,5.25
2022-09-15T20:31:48.087Z,5.72
2022-09-15T20:34:15.841Z,7.47
2022-09-15T20:36:43.765Z,9.55
2022-09-15T20:39:14.550Z,10.32
2022-09-15T20:41:45.170Z,6.07
2022-09-15T20:44:13.092Z,9.55
2022-09-15T20:46:40.698Z,9.13
2022-09-15T20:49:08.951Z,6.63
2022-09-15T20:51:36.203Z,8.38
2022-09-15T20:54:04.971Z,8.40
2022-09-15T20:56:34.992Z,6.93
2022-09-15T21:01:34.530Z,7.85
2022-09-15T21:04:02.281Z,8.68
2022-09-15T21:06:29.507Z,11.15
2022-09-15T21:08:57.811Z,5.13
2022-09-15T21:11:29.640Z,5.50
2022-09-15T21:13:57.771Z,6.15
2022-09-15T21:16:27.419Z,5.63
2022-09-15T21:18:56.387Z,7.03
2022-09-15T21:21:25.866Z,3.40
2022-09-15T21:23:55.066Z,6.97
2022-09-15T21:26:24.816Z,6.40
2022-09-15T21:28:53.745Z,9.30
2022-09-15T21:31:22.842Z,6.82
2022-09-15T21:33:51.374Z,6.32
2022-09-15T21:36:24.611Z,6.55
2022-09-15T21:38:53.886Z,4.85
2022-09-15T21:41:22.922Z,4.97
2022-09-15T21:43:55.376Z,4.65
2022-09-15T21:46:24.364Z,5.32
2022-09-15T21:48:51.809Z,3.92
2022-09-15T21:51:24.329Z,7.28
2022-09-15T21:53:56.751Z,6.00
2022-09-15T21:56:24.703Z,8.52
2022-09-15T21:58:51.942Z,5.22
2022-09-15T22:01:20.232Z,7.47
2022-09-15T22:03:51.985Z,6.85
2022-09-15T22:06:21.415Z,5.60
2022-09-15T22:09:45.271Z,5.73
2022-09-15T22:12:18.819Z,6.63
2022-09-15T22:14:46.011Z,4.97
2022-09-15T22:17:13.906Z,4.80
2022-09-15T22:19:41.179Z,3.83
2022-09-15T22:22:08.846Z,5.75
2022-09-15T22:24:36.131Z,3.80
2022-09-15T22:27:03.390Z,3.92
2022-09-15T22:29:30.534Z,6.47
2022-09-15T22:31:57.865Z,5.22
2022-09-15T22:34:25.054Z,5.80
2022-09-15T22:36:52.221Z,6.85
2022-09-15T22:39:19.360Z,4.72
2022-09-15T22:41:46.674Z,8.63
2022-09-15T22:44:18.865Z,6.50
2022-09-15T22:46:46.377Z,6.80
2022-09-15T22:49:13.592Z,6.65
2022-09-15T22:51:40.891Z,5.97
2022-09-15T22:54:08.102Z,7.60
2022-09-15T22:56:35.334Z,3.88
2022-09-15T22:59:02.795Z,4.97
2022-09-15T23:01:31.097Z,4.18
2022-09-15T23:04:00.886Z,5.72
2022-09-15T23:06:30.796Z,6.47
2022-09-15T23:08:59.979Z,8.57
2022-09-15T23:11:28.532Z,4.25
2022-09-15T23:13:56.418Z,6.22
2022-09-15T23:16:25.008Z,4.93
2022-09-15T23:18:53.095Z,3.85
2022-09-15T23:21:20.954Z,4.47
2022-09-15T23:23:49.247Z,4.72
2022-09-15T23:26:18.365Z,6.90
2022-09-15T23:28:45.861Z,4.07
2022-09-15T23:31:13.695Z,7.32
2022-09-15T23:33:41.600Z,5.80
2022-09-15T23:36:11.676Z,8.48
2022-09-15T23:38:41.040Z,6.38
2022-09-15T23:41:08.967Z,9.40
2022-09-15T23:43:36.309Z,6.72
2022-09-15T23:46:04.570Z,6.75
2022-09-15T23:48:32.534Z,6.68
2022-09-15T23:51:00.021Z,5.40
2022-09-15T23:53:27.397Z,6.28
2022-09-15T23:55:54.676Z,6.07
2022-09-15T23:58:21.900Z,5.95
